Athens, Indiana
Current Conditions -  °F | °C
As of 12:55 PM on Thursday 27 Nov 2014 (Local Time) from KRCR Reporting Station
Overcast Overcast  
Wind Chill: 24°   Ceiling: 2200
Heat Index: 32°   Visibility: 10mi
Dew Point: 27°   Wind: 10mph
Humidity: 80%   Direction: 290°WNW
Pressure: 30.27"   Gusts: 18mph
Location:  41.05°N, 86.13°W
Report Text: KRCR 271755Z AUTO 29009G16KT 10SM OVC022 00/M03 A3027 RMK AO2
Loading
Personal Weather Stations






























Interactive Weather Map New forecast layout! Learn more

10-Day Weather Forecast

Advertisements
Track Severe Weather on mobile